sensor_id;sensor_type;location;lat;lon;timestamp;P1;durP1;ratioP1;P2;durP2;ratioP2
21352;SDS011;10834;52.268;6.770;2023-10-31T00:00:12;30.53;;;21.90;;
21352;SDS011;10834;52.268;6.770;2023-10-31T00:02:56;31.97;;;21.30;;
21352;SDS011;10834;52.268;6.770;2023-10-31T00:05:40;26.60;;;19.00;;
21352;SDS011;10834;52.268;6.770;2023-10-31T00:08:24;31.07;;;21.03;;
21352;SDS011;10834;52.268;6.770;2023-10-31T00:11:08;30.57;;;21.40;;
21352;SDS011;10834;52.268;6.770;2023-10-31T00:13:52;27.60;;;19.63;;
21352;SDS011;10834;52.268;6.770;2023-10-31T00:16:36;26.03;;;19.30;;
21352;SDS011;10834;52.268;6.770;2023-10-31T00:19:20;26.53;;;18.57;;
21352;SDS011;10834;52.268;6.770;2023-10-31T00:22:04;26.87;;;19.67;;
21352;SDS011;10834;52.268;6.770;2023-10-31T00:24:48;29.50;;;18.30;;
21352;SDS011;10834;52.268;6.770;2023-10-31T00:27:33;25.73;;;17.20;;
21352;SDS011;10834;52.268;6.770;2023-10-31T00:30:17;25.70;;;17.60;;
21352;SDS011;10834;52.268;6.770;2023-10-31T00:33:01;30.50;;;19.43;;
21352;SDS011;10834;52.268;6.770;2023-10-31T00:35:45;25.50;;;17.20;;
21352;SDS011;10834;52.268;6.770;2023-10-31T00:38:29;26.67;;;18.10;;
21352;SDS011;10834;52.268;6.770;2023-10-31T00:41:13;28.20;;;17.33;;
21352;SDS011;10834;52.268;6.770;2023-10-31T00:43:57;25.50;;;16.57;;
21352;SDS011;10834;52.268;6.770;2023-10-31T00:46:42;24.57;;;16.77;;
21352;SDS011;10834;52.268;6.770;2023-10-31T00:49:27;22.33;;;15.97;;
21352;SDS011;10834;52.268;6.770;2023-10-31T00:52:11;21.37;;;16.20;;
21352;SDS011;10834;52.268;6.770;2023-10-31T00:54:55;22.07;;;15.47;;
21352;SDS011;10834;52.268;6.770;2023-10-31T00:57:39;20.93;;;15.93;;
21352;SDS011;10834;52.268;6.770;2023-10-31T01:00:24;24.87;;;15.80;;
21352;SDS011;10834;52.268;6.770;2023-10-31T01:03:08;22.53;;;15.60;;
21352;SDS011;10834;52.268;6.770;2023-10-31T01:05:52;19.73;;;14.77;;
21352;SDS011;10834;52.268;6.770;2023-10-31T01:08:36;26.77;;;14.97;;
21352;SDS011;10834;52.268;6.770;2023-10-31T01:11:20;23.17;;;15.47;;
21352;SDS011;10834;52.268;6.770;2023-10-31T01:14:04;18.60;;;13.33;;
21352;SDS011;10834;52.268;6.770;2023-10-31T01:16:48;19.30;;;12.67;;
21352;SDS011;10834;52.268;6.770;2023-10-31T01:19:32;15.90;;;11.20;;
21352;SDS011;10834;52.268;6.770;2023-10-31T01:22:17;9.27;;;6.47;;
21352;SDS011;10834;52.268;6.770;2023-10-31T01:25:01;4.60;;;3.63;;
21352;SDS011;10834;52.268;6.770;2023-10-31T01:27:46;6.83;;;1.50;;
21352;SDS011;10834;52.268;6.770;2023-10-31T01:30:30;1.30;;;0.90;;
21352;SDS011;10834;52.268;6.770;2023-10-31T01:33:14;2.60;;;0.70;;
21352;SDS011;10834;52.268;6.770;2023-10-31T01:35:59;0.63;;;0.63;;
21352;SDS011;10834;52.268;6.770;2023-10-31T01:38:43;0.50;;;0.50;;
21352;SDS011;10834;52.268;6.770;2023-10-31T01:41:27;1.37;;;0.67;;
21352;SDS011;10834;52.268;6.770;2023-10-31T01:44:11;3.27;;;0.63;;
21352;SDS011;10834;52.268;6.770;2023-10-31T01:46:55;0.40;;;0.40;;
21352;SDS011;10834;52.268;6.770;2023-10-31T01:49:40;1.50;;;0.57;;
21352;SDS011;10834;52.268;6.770;2023-10-31T01:52:25;1.00;;;0.50;;
21352;SDS011;10834;52.268;6.770;2023-10-31T01:55:10;1.90;;;0.50;;
21352;SDS011;10834;52.268;6.770;2023-10-31T01:57:54;1.57;;;0.30;;
21352;SDS011;10834;52.268;6.770;2023-10-31T02:00:41;1.53;;;0.50;;
21352;SDS011;10834;52.268;6.770;2023-10-31T02:03:27;1.67;;;0.50;;
21352;SDS011;10834;52.268;6.770;2023-10-31T02:06:11;1.03;;;0.80;;
21352;SDS011;10834;52.268;6.770;2023-10-31T02:08:55;0.83;;;0.30;;
21352;SDS011;10834;52.268;6.770;2023-10-31T02:11:40;0.90;;;0.27;;
21352;SDS011;10834;52.268;6.770;2023-10-31T02:14:24;0.93;;;0.40;;
21352;SDS011;10834;52.268;6.770;2023-10-31T02:17:08;2.07;;;0.30;;
21352;SDS011;10834;52.268;6.770;2023-10-31T02:19:53;0.63;;;0.37;;
21352;SDS011;10834;52.268;6.770;2023-10-31T02:22:38;1.97;;;0.57;;
21352;SDS011;10834;52.268;6.770;2023-10-31T02:25:22;2.80;;;1.20;;
21352;SDS011;10834;52.268;6.770;2023-10-31T02:28:06;2.20;;;0.40;;
21352;SDS011;10834;52.268;6.770;2023-10-31T02:30:50;3.70;;;0.60;;
21352;SDS011;10834;52.268;6.770;2023-10-31T02:33:37;1.73;;;0.63;;
21352;SDS011;10834;52.268;6.770;2023-10-31T02:36:22;1.00;;;0.60;;
21352;SDS011;10834;52.268;6.770;2023-10-31T02:39:06;4.17;;;0.70;;
21352;SDS011;10834;52.268;6.770;2023-10-31T02:41:51;1.70;;;0.50;;
21352;SDS011;10834;52.268;6.770;2023-10-31T02:44:35;3.93;;;0.93;;
21352;SDS011;10834;52.268;6.770;2023-10-31T02:47:19;6.03;;;0.90;;
21352;SDS011;10834;52.268;6.770;2023-10-31T02:50:04;1.73;;;1.10;;
21352;SDS011;10834;52.268;6.770;2023-10-31T02:52:49;3.50;;;0.90;;
21352;SDS011;10834;52.268;6.770;2023-10-31T02:55:33;4.00;;;1.20;;
21352;SDS011;10834;52.268;6.770;2023-10-31T02:58:17;3.50;;;1.67;;
21352;SDS011;10834;52.268;6.770;2023-10-31T03:01:01;2.83;;;1.40;;
21352;SDS011;10834;52.268;6.770;2023-10-31T03:03:46;3.47;;;1.40;;
21352;SDS011;10834;52.268;6.770;2023-10-31T03:06:30;9.20;;;2.23;;
21352;SDS011;10834;52.268;6.770;2023-10-31T03:09:14;3.57;;;1.67;;
21352;SDS011;10834;52.268;6.770;2023-10-31T03:11:58;6.80;;;2.13;;
21352;SDS011;10834;52.268;6.770;2023-10-31T03:14:42;2.87;;;1.90;;
21352;SDS011;10834;52.268;6.770;2023-10-31T03:17:27;4.43;;;2.33;;
21352;SDS011;10834;52.268;6.770;2023-10-31T03:20:11;6.23;;;3.07;;
21352;SDS011;10834;52.268;6.770;2023-10-31T03:22:55;7.83;;;4.00;;
21352;SDS011;10834;52.268;6.770;2023-10-31T03:25:39;7.57;;;4.30;;
21352;SDS011;10834;52.268;6.770;2023-10-31T03:28:24;6.37;;;4.63;;
21352;SDS011;10834;52.268;6.770;2023-10-31T03:31:09;11.40;;;5.53;;
21352;SDS011;10834;52.268;6.770;2023-10-31T03:33:53;8.90;;;5.93;;
21352;SDS011;10834;52.268;6.770;2023-10-31T03:36:37;9.70;;;6.90;;
21352;SDS011;10834;52.268;6.770;2023-10-31T03:39:21;11.77;;;7.63;;
21352;SDS011;10834;52.268;6.770;2023-10-31T03:42:06;10.40;;;7.57;;
21352;SDS011;10834;52.268;6.770;2023-10-31T03:44:50;17.07;;;10.20;;
21352;SDS011;10834;52.268;6.770;2023-10-31T03:47:35;15.23;;;8.47;;
21352;SDS011;10834;52.268;6.770;2023-10-31T03:50:19;13.70;;;8.90;;
21352;SDS011;10834;52.268;6.770;2023-10-31T03:53:04;12.47;;;8.43;;
21352;SDS011;10834;52.268;6.770;2023-10-31T03:55:48;12.40;;;8.47;;
21352;SDS011;10834;52.268;6.770;2023-10-31T03:58:32;13.90;;;8.67;;
21352;SDS011;10834;52.268;6.770;2023-10-31T04:01:16;14.60;;;9.03;;
21352;SDS011;10834;52.268;6.770;2023-10-31T04:04:01;15.20;;;8.43;;
21352;SDS011;10834;52.268;6.770;2023-10-31T04:06:45;11.10;;;7.87;;
21352;SDS011;10834;52.268;6.770;2023-10-31T04:09:30;11.33;;;7.90;;
21352;SDS011;10834;52.268;6.770;2023-10-31T04:12:14;11.07;;;7.63;;
21352;SDS011;10834;52.268;6.770;2023-10-31T04:14:59;13.40;;;7.43;;
21352;SDS011;10834;52.268;6.770;2023-10-31T04:17:43;13.67;;;7.63;;
21352;SDS011;10834;52.268;6.770;2023-10-31T04:20:27;9.00;;;6.23;;
21352;SDS011;10834;52.268;6.770;2023-10-31T04:23:11;12.00;;;8.40;;
21352;SDS011;10834;52.268;6.770;2023-10-31T04:25:56;9.30;;;5.73;;
21352;SDS011;10834;52.268;6.770;2023-10-31T04:28:40;9.77;;;5.10;;
21352;SDS011;10834;52.268;6.770;2023-10-31T04:31:24;5.87;;;4.00;;
21352;SDS011;10834;52.268;6.770;2023-10-31T04:34:09;5.77;;;3.70;;
21352;SDS011;10834;52.268;6.770;2023-10-31T04:36:53;3.53;;;3.03;;
21352;SDS011;10834;52.268;6.770;2023-10-31T04:39:37;3.37;;;2.63;;
21352;SDS011;10834;52.268;6.770;2023-10-31T04:42:21;4.53;;;2.20;;
21352;SDS011;10834;52.268;6.770;2023-10-31T04:45:06;3.50;;;2.17;;
21352;SDS011;10834;52.268;6.770;2023-10-31T04:47:51;4.07;;;2.03;;
21352;SDS011;10834;52.268;6.770;2023-10-31T04:50:35;2.10;;;1.80;;
21352;SDS011;10834;52.268;6.770;2023-10-31T04:53:19;5.33;;;1.47;;
21352;SDS011;10834;52.268;6.770;2023-10-31T04:56:03;2.53;;;1.40;;
21352;SDS011;10834;52.268;6.770;2023-10-31T04:58:48;2.23;;;1.50;;
21352;SDS011;10834;52.268;6.770;2023-10-31T05:01:32;1.77;;;1.27;;
21352;SDS011;10834;52.268;6.770;2023-10-31T05:04:16;1.33;;;1.23;;
21352;SDS011;10834;52.268;6.770;2023-10-31T05:07:01;1.83;;;1.63;;
21352;SDS011;10834;52.268;6.770;2023-10-31T05:09:45;2.80;;;1.80;;
21352;SDS011;10834;52.268;6.770;2023-10-31T05:12:29;19.43;;;3.50;;
21352;SDS011;10834;52.268;6.770;2023-10-31T05:15:13;2.07;;;1.90;;
21352;SDS011;10834;52.268;6.770;2023-10-31T05:17:58;2.70;;;2.50;;
21352;SDS011;10834;52.268;6.770;2023-10-31T05:20:42;2.70;;;2.50;;
21352;SDS011;10834;52.268;6.770;2023-10-31T05:23:26;3.37;;;3.07;;
21352;SDS011;10834;52.268;6.770;2023-10-31T05:26:10;4.20;;;3.33;;
21352;SDS011;10834;52.268;6.770;2023-10-31T05:28:54;6.40;;;3.93;;
21352;SDS011;10834;52.268;6.770;2023-10-31T05:31:39;4.07;;;3.50;;
21352;SDS011;10834;52.268;6.770;2023-10-31T05:34:25;4.53;;;3.90;;
21352;SDS011;10834;52.268;6.770;2023-10-31T05:37:09;5.10;;;4.50;;
21352;SDS011;10834;52.268;6.770;2023-10-31T05:39:53;5.53;;;4.57;;
21352;SDS011;10834;52.268;6.770;2023-10-31T05:42:37;5.50;;;4.97;;
21352;SDS011;10834;52.268;6.770;2023-10-31T05:45:21;5.97;;;5.20;;
21352;SDS011;10834;52.268;6.770;2023-10-31T05:48:05;8.90;;;5.10;;
21352;SDS011;10834;52.268;6.770;2023-10-31T05:50:49;8.53;;;5.53;;
21352;SDS011;10834;52.268;6.770;2023-10-31T05:53:33;8.27;;;6.40;;
21352;SDS011;10834;52.268;6.770;2023-10-31T05:56:18;11.10;;;6.47;;
21352;SDS011;10834;52.268;6.770;2023-10-31T05:59:02;9.13;;;6.63;;
21352;SDS011;10834;52.268;6.770;2023-10-31T06:01:46;7.40;;;6.50;;
21352;SDS011;10834;52.268;6.770;2023-10-31T06:04:30;7.10;;;6.23;;
21352;SDS011;10834;52.268;6.770;2023-10-31T06:07:14;7.03;;;5.80;;
21352;SDS011;10834;52.268;6.770;2023-10-31T06:09:58;6.67;;;5.97;;
21352;SDS011;10834;52.268;6.770;2023-10-31T06:12:42;8.00;;;6.30;;
21352;SDS011;10834;52.268;6.770;2023-10-31T06:15:26;6.77;;;5.60;;
21352;SDS011;10834;52.268;6.770;2023-10-31T06:18:10;7.10;;;5.83;;
21352;SDS011;10834;52.268;6.770;2023-10-31T06:20:56;7.43;;;5.50;;
21352;SDS011;10834;52.268;6.770;2023-10-31T06:23:40;9.10;;;5.73;;
21352;SDS011;10834;52.268;6.770;2023-10-31T06:26:26;6.27;;;5.03;;
21352;SDS011;10834;52.268;6.770;2023-10-31T06:29:10;7.63;;;5.07;;
21352;SDS011;10834;52.268;6.770;2023-10-31T06:31:54;6.17;;;4.57;;
21352;SDS011;10834;52.268;6.770;2023-10-31T06:34:38;5.73;;;4.10;;
21352;SDS011;10834;52.268;6.770;2023-10-31T06:37:22;8.37;;;4.63;;
21352;SDS011;10834;52.268;6.770;2023-10-31T06:40:07;10.53;;;4.33;;
21352;SDS011;10834;52.268;6.770;2023-10-31T06:42:51;5.47;;;3.50;;
21352;SDS011;10834;52.268;6.770;2023-10-31T06:45:35;4.97;;;3.67;;
21352;SDS011;10834;52.268;6.770;2023-10-31T06:48:19;4.63;;;3.90;;
21352;SDS011;10834;52.268;6.770;2023-10-31T06:51:03;4.67;;;3.67;;
21352;SDS011;10834;52.268;6.770;2023-10-31T06:53:48;4.07;;;3.50;;
21352;SDS011;10834;52.268;6.770;2023-10-31T06:56:32;4.53;;;3.30;;
21352;SDS011;10834;52.268;6.770;2023-10-31T06:59:17;8.03;;;4.13;;
21352;SDS011;10834;52.268;6.770;2023-10-31T07:02:01;5.77;;;3.83;;
21352;SDS011;10834;52.268;6.770;2023-10-31T07:04:45;5.37;;;3.43;;
21352;SDS011;10834;52.268;6.770;2023-10-31T07:07:29;6.43;;;3.77;;
21352;SDS011;10834;52.268;6.770;2023-10-31T07:10:13;4.30;;;3.07;;
21352;SDS011;10834;52.268;6.770;2023-10-31T07:12:58;3.47;;;2.30;;
21352;SDS011;10834;52.268;6.770;2023-10-31T07:15:42;3.90;;;2.90;;
21352;SDS011;10834;52.268;6.770;2023-10-31T07:18:27;5.13;;;3.03;;
21352;SDS011;10834;52.268;6.770;2023-10-31T07:21:11;4.83;;;2.63;;
21352;SDS011;10834;52.268;6.770;2023-10-31T07:23:55;5.10;;;3.20;;
21352;SDS011;10834;52.268;6.770;2023-10-31T07:26:40;3.67;;;2.43;;
21352;SDS011;10834;52.268;6.770;2023-10-31T07:29:24;2.60;;;2.30;;
21352;SDS011;10834;52.268;6.770;2023-10-31T07:32:08;3.63;;;2.40;;
21352;SDS011;10834;52.268;6.770;2023-10-31T07:34:53;3.47;;;2.67;;
21352;SDS011;10834;52.268;6.770;2023-10-31T07:37:38;3.20;;;2.10;;
21352;SDS011;10834;52.268;6.770;2023-10-31T07:40:22;5.70;;;2.30;;
21352;SDS011;10834;52.268;6.770;2023-10-31T07:43:06;4.20;;;2.90;;
21352;SDS011;10834;52.268;6.770;2023-10-31T07:45:50;4.20;;;2.40;;
21352;SDS011;10834;52.268;6.770;2023-10-31T07:48:34;3.57;;;2.30;;
21352;SDS011;10834;52.268;6.770;2023-10-31T07:51:18;3.93;;;2.27;;
21352;SDS011;10834;52.268;6.770;2023-10-31T07:54:03;5.17;;;2.10;;
21352;SDS011;10834;52.268;6.770;2023-10-31T07:56:47;4.83;;;2.63;;
21352;SDS011;10834;52.268;6.770;2023-10-31T07:59:33;4.47;;;2.67;;
21352;SDS011;10834;52.268;6.770;2023-10-31T08:02:18;3.10;;;2.53;;
21352;SDS011;10834;52.268;6.770;2023-10-31T08:05:02;6.13;;;2.60;;
21352;SDS011;10834;52.268;6.770;2023-10-31T08:07:47;5.97;;;2.83;;
21352;SDS011;10834;52.268;6.770;2023-10-31T08:10:31;7.70;;;4.03;;
21352;SDS011;10834;52.268;6.770;2023-10-31T08:13:17;4.67;;;3.57;;
21352;SDS011;10834;52.268;6.770;2023-10-31T08:16:02;4.03;;;2.87;;
21352;SDS011;10834;52.268;6.770;2023-10-31T08:18:50;6.87;;;2.33;;
21352;SDS011;10834;52.268;6.770;2023-10-31T08:21:34;4.53;;;2.73;;
21352;SDS011;10834;52.268;6.770;2023-10-31T08:24:19;5.00;;;2.30;;
21352;SDS011;10834;52.268;6.770;2023-10-31T08:27:03;4.63;;;3.20;;
21352;SDS011;10834;52.268;6.770;2023-10-31T08:29:48;4.30;;;3.37;;
21352;SDS011;10834;52.268;6.770;2023-10-31T08:32:32;4.33;;;2.60;;
21352;SDS011;10834;52.268;6.770;2023-10-31T08:35:16;4.57;;;3.13;;
21352;SDS011;10834;52.268;6.770;2023-10-31T08:38:00;3.33;;;2.50;;
21352;SDS011;10834;52.268;6.770;2023-10-31T08:40:44;4.40;;;2.70;;
21352;SDS011;10834;52.268;6.770;2023-10-31T08:43:28;2.97;;;2.50;;
21352;SDS011;10834;52.268;6.770;2023-10-31T08:46:13;3.60;;;2.37;;
21352;SDS011;10834;52.268;6.770;2023-10-31T08:48:57;3.00;;;2.40;;
21352;SDS011;10834;52.268;6.770;2023-10-31T08:51:41;4.20;;;2.27;;
21352;SDS011;10834;52.268;6.770;2023-10-31T08:54:25;3.67;;;2.17;;
21352;SDS011;10834;52.268;6.770;2023-10-31T08:57:10;4.03;;;2.80;;
21352;SDS011;10834;52.268;6.770;2023-10-31T08:59:54;3.93;;;2.50;;
21352;SDS011;10834;52.268;6.770;2023-10-31T09:02:38;4.93;;;2.97;;
21352;SDS011;10834;52.268;6.770;2023-10-31T09:05:22;4.43;;;2.40;;
21352;SDS011;10834;52.268;6.770;2023-10-31T09:08:07;3.63;;;2.63;;
21352;SDS011;10834;52.268;6.770;2023-10-31T09:10:51;3.00;;;2.37;;
21352;SDS011;10834;52.268;6.770;2023-10-31T09:13:35;4.60;;;2.43;;
21352;SDS011;10834;52.268;6.770;2023-10-31T09:16:19;5.50;;;2.87;;
21352;SDS011;10834;52.268;6.770;2023-10-31T09:19:03;3.93;;;2.50;;
21352;SDS011;10834;52.268;6.770;2023-10-31T09:21:47;4.23;;;2.47;;
21352;SDS011;10834;52.268;6.770;2023-10-31T09:24:31;4.00;;;2.60;;
21352;SDS011;10834;52.268;6.770;2023-10-31T09:27:16;6.30;;;2.67;;
21352;SDS011;10834;52.268;6.770;2023-10-31T09:30:00;3.40;;;2.50;;
21352;SDS011;10834;52.268;6.770;2023-10-31T09:32:44;3.43;;;2.83;;
21352;SDS011;10834;52.268;6.770;2023-10-31T09:35:28;5.60;;;2.93;;
21352;SDS011;10834;52.268;6.770;2023-10-31T09:38:12;3.93;;;2.40;;
21352;SDS011;10834;52.268;6.770;2023-10-31T09:40:57;3.13;;;2.50;;
21352;SDS011;10834;52.268;6.770;2023-10-31T09:43:41;3.17;;;2.60;;
21352;SDS011;10834;52.268;6.770;2023-10-31T09:46:26;2.97;;;2.60;;
21352;SDS011;10834;52.268;6.770;2023-10-31T09:49:12;2.93;;;2.63;;
21352;SDS011;10834;52.268;6.770;2023-10-31T09:51:56;6.00;;;3.30;;
21352;SDS011;10834;52.268;6.770;2023-10-31T09:54:42;4.03;;;3.00;;
21352;SDS011;10834;52.268;6.770;2023-10-31T09:57:28;3.73;;;2.80;;
21352;SDS011;10834;52.268;6.770;2023-10-31T10:00:13;3.37;;;2.97;;
21352;SDS011;10834;52.268;6.770;2023-10-31T10:02:57;6.03;;;2.90;;
21352;SDS011;10834;52.268;6.770;2023-10-31T10:05:43;3.30;;;3.00;;
21352;SDS011;10834;52.268;6.770;2023-10-31T10:08:29;6.07;;;2.80;;
21352;SDS011;10834;52.268;6.770;2023-10-31T10:11:13;3.97;;;3.00;;
21352;SDS011;10834;52.268;6.770;2023-10-31T10:13:58;3.37;;;2.97;;
21352;SDS011;10834;52.268;6.770;2023-10-31T10:16:42;4.30;;;3.20;;
21352;SDS011;10834;52.268;6.770;2023-10-31T10:19:26;6.37;;;3.60;;
21352;SDS011;10834;52.268;6.770;2023-10-31T10:22:11;5.63;;;3.13;;
21352;SDS011;10834;52.268;6.770;2023-10-31T10:24:57;3.30;;;3.00;;
21352;SDS011;10834;52.268;6.770;2023-10-31T10:27:42;6.07;;;3.17;;
21352;SDS011;10834;52.268;6.770;2023-10-31T10:30:26;2.97;;;2.70;;
21352;SDS011;10834;52.268;6.770;2023-10-31T10:33:10;3.17;;;2.80;;
21352;SDS011;10834;52.268;6.770;2023-10-31T10:35:54;2.67;;;2.47;;
21352;SDS011;10834;52.268;6.770;2023-10-31T10:38:39;4.67;;;3.03;;
21352;SDS011;10834;52.268;6.770;2023-10-31T10:41:27;3.13;;;2.83;;
21352;SDS011;10834;52.268;6.770;2023-10-31T10:44:12;3.30;;;2.63;;
21352;SDS011;10834;52.268;6.770;2023-10-31T10:46:57;3.13;;;2.53;;
21352;SDS011;10834;52.268;6.770;2023-10-31T10:49:45;2.57;;;2.30;;
21352;SDS011;10834;52.268;6.770;2023-10-31T10:52:53;4.77;;;2.77;;
21352;SDS011;10834;52.268;6.770;2023-10-31T10:55:45;4.60;;;2.17;;
21352;SDS011;10834;52.268;6.770;2023-10-31T11:01:28;3.13;;;2.07;;
21352;SDS011;10834;52.268;6.770;2023-10-31T11:04:14;3.00;;;2.13;;
21352;SDS011;10834;52.268;6.770;2023-10-31T11:07:00;3.47;;;2.10;;
21352;SDS011;10834;52.268;6.770;2023-10-31T11:09:46;4.50;;;2.33;;
21352;SDS011;10834;52.268;6.770;2023-10-31T11:12:31;2.43;;;1.57;;
21352;SDS011;10834;52.268;6.770;2023-10-31T11:15:16;2.30;;;2.10;;
21352;SDS011;10834;52.268;6.770;2023-10-31T11:18:01;4.83;;;1.80;;
21352;SDS011;10834;52.268;6.770;2023-10-31T11:20:46;3.53;;;1.60;;
21352;SDS011;10834;52.268;6.770;2023-10-31T11:23:31;1.27;;;1.17;;
21352;SDS011;10834;52.268;6.770;2023-10-31T11:26:16;3.43;;;1.30;;
21352;SDS011;10834;52.268;6.770;2023-10-31T11:29:04;2.13;;;1.50;;
21352;SDS011;10834;52.268;6.770;2023-10-31T11:31:49;1.23;;;1.13;;
21352;SDS011;10834;52.268;6.770;2023-10-31T11:34:33;4.50;;;2.17;;
21352;SDS011;10834;52.268;6.770;2023-10-31T11:37:25;4.13;;;2.23;;
21352;SDS011;10834;52.268;6.770;2023-10-31T11:42:58;2.40;;;1.30;;
21352;SDS011;10834;52.268;6.770;2023-10-31T11:45:46;1.63;;;1.50;;
21352;SDS011;10834;52.268;6.770;2023-10-31T11:48:51;1.70;;;1.60;;
21352;SDS011;10834;52.268;6.770;2023-10-31T11:51:36;1.80;;;1.50;;
21352;SDS011;10834;52.268;6.770;2023-10-31T11:54:20;4.07;;;1.70;;
21352;SDS011;10834;52.268;6.770;2023-10-31T11:57:04;2.00;;;1.90;;
21352;SDS011;10834;52.268;6.770;2023-10-31T11:59:48;1.60;;;1.50;;
21352;SDS011;10834;52.268;6.770;2023-10-31T12:02:33;2.50;;;1.30;;
21352;SDS011;10834;52.268;6.770;2023-10-31T12:05:17;1.53;;;1.43;;
21352;SDS011;10834;52.268;6.770;2023-10-31T12:08:01;3.93;;;1.20;;
21352;SDS011;10834;52.268;6.770;2023-10-31T12:10:45;3.53;;;2.00;;
21352;SDS011;10834;52.268;6.770;2023-10-31T12:13:29;2.47;;;1.37;;
21352;SDS011;10834;52.268;6.770;2023-10-31T12:16:13;1.63;;;1.00;;
21352;SDS011;10834;52.268;6.770;2023-10-31T12:18:59;4.87;;;1.13;;
21352;SDS011;10834;52.268;6.770;2023-10-31T12:21:45;3.57;;;1.17;;
21352;SDS011;10834;52.268;6.770;2023-10-31T12:24:33;2.77;;;1.20;;
21352;SDS011;10834;52.268;6.770;2023-10-31T12:27:18;3.57;;;1.30;;
21352;SDS011;10834;52.268;6.770;2023-10-31T12:30:02;3.23;;;1.20;;
21352;SDS011;10834;52.268;6.770;2023-10-31T12:32:56;5.43;;;1.20;;
21352;SDS011;10834;52.268;6.770;2023-10-31T12:35:40;6.43;;;1.17;;
21352;SDS011;10834;52.268;6.770;2023-10-31T12:38:26;6.73;;;1.30;;
21352;SDS011;10834;52.268;6.770;2023-10-31T12:41:11;4.33;;;0.90;;
21352;SDS011;10834;52.268;6.770;2023-10-31T12:43:55;2.30;;;0.87;;
21352;SDS011;10834;52.268;6.770;2023-10-31T12:46:40;3.27;;;1.67;;
21352;SDS011;10834;52.268;6.770;2023-10-31T12:49:25;9.93;;;1.50;;
21352;SDS011;10834;52.268;6.770;2023-10-31T12:52:11;1.97;;;1.00;;
21352;SDS011;10834;52.268;6.770;2023-10-31T12:54:55;3.80;;;1.00;;
21352;SDS011;10834;52.268;6.770;2023-10-31T12:57:39;2.27;;;0.73;;
21352;SDS011;10834;52.268;6.770;2023-10-31T13:00:30;1.87;;;0.70;;
21352;SDS011;10834;52.268;6.770;2023-10-31T13:03:16;0.50;;;0.50;;
21352;SDS011;10834;52.268;6.770;2023-10-31T13:06:00;3.37;;;0.73;;
21352;SDS011;10834;52.268;6.770;2023-10-31T13:08:58;1.60;;;0.57;;
21352;SDS011;10834;52.268;6.770;2023-10-31T13:11:42;1.97;;;0.60;;
21352;SDS011;10834;52.268;6.770;2023-10-31T13:14:31;2.50;;;0.70;;
21352;SDS011;10834;52.268;6.770;2023-10-31T13:17:16;2.50;;;0.67;;
21352;SDS011;10834;52.268;6.770;2023-10-31T13:20:00;4.60;;;0.70;;
21352;SDS011;10834;52.268;6.770;2023-10-31T13:22:47;3.70;;;0.83;;
21352;SDS011;10834;52.268;6.770;2023-10-31T13:25:32;5.97;;;1.27;;
21352;SDS011;10834;52.268;6.770;2023-10-31T13:28:16;3.43;;;0.80;;
21352;SDS011;10834;52.268;6.770;2023-10-31T13:31:00;2.07;;;0.60;;
21352;SDS011;10834;52.268;6.770;2023-10-31T13:33:46;1.77;;;0.80;;
21352;SDS011;10834;52.268;6.770;2023-10-31T13:36:30;4.57;;;0.90;;
21352;SDS011;10834;52.268;6.770;2023-10-31T13:39:14;2.33;;;0.63;;
21352;SDS011;10834;52.268;6.770;2023-10-31T13:41:59;6.37;;;1.37;;
21352;SDS011;10834;52.268;6.770;2023-10-31T13:44:43;5.17;;;1.00;;
21352;SDS011;10834;52.268;6.770;2023-10-31T13:47:28;2.47;;;0.90;;
21352;SDS011;10834;52.268;6.770;2023-10-31T13:50:13;2.07;;;1.00;;
21352;SDS011;10834;52.268;6.770;2023-10-31T13:52:59;3.93;;;1.13;;
21352;SDS011;10834;52.268;6.770;2023-10-31T13:55:43;2.07;;;1.20;;
21352;SDS011;10834;52.268;6.770;2023-10-31T13:58:28;3.17;;;1.53;;
21352;SDS011;10834;52.268;6.770;2023-10-31T14:01:12;3.23;;;1.60;;
21352;SDS011;10834;52.268;6.770;2023-10-31T14:03:57;2.60;;;2.20;;
21352;SDS011;10834;52.268;6.770;2023-10-31T14:06:41;2.47;;;2.10;;
21352;SDS011;10834;52.268;6.770;2023-10-31T14:09:25;2.80;;;1.90;;
21352;SDS011;10834;52.268;6.770;2023-10-31T14:12:09;2.20;;;2.00;;
21352;SDS011;10834;52.268;6.770;2023-10-31T14:14:54;3.07;;;1.70;;
21352;SDS011;10834;52.268;6.770;2023-10-31T14:17:38;2.97;;;1.43;;
21352;SDS011;10834;52.268;6.770;2023-10-31T14:20:22;3.87;;;1.50;;
21352;SDS011;10834;52.268;6.770;2023-10-31T14:23:06;2.80;;;1.57;;
21352;SDS011;10834;52.268;6.770;2023-10-31T14:25:50;3.03;;;1.40;;
21352;SDS011;10834;52.268;6.770;2023-10-31T14:28:34;1.57;;;1.17;;
21352;SDS011;10834;52.268;6.770;2023-10-31T14:31:18;4.10;;;1.43;;
21352;SDS011;10834;52.268;6.770;2023-10-31T14:34:04;2.57;;;1.00;;
21352;SDS011;10834;52.268;6.770;2023-10-31T14:36:49;2.40;;;1.13;;
21352;SDS011;10834;52.268;6.770;2023-10-31T14:39:33;3.43;;;1.33;;
21352;SDS011;10834;52.268;6.770;2023-10-31T14:42:17;3.10;;;0.90;;
21352;SDS011;10834;52.268;6.770;2023-10-31T14:45:01;0.90;;;0.70;;
21352;SDS011;10834;52.268;6.770;2023-10-31T14:47:45;2.27;;;1.07;;
21352;SDS011;10834;52.268;6.770;2023-10-31T14:50:29;0.93;;;0.77;;
21352;SDS011;10834;52.268;6.770;2023-10-31T14:53:14;2.23;;;0.90;;
21352;SDS011;10834;52.268;6.770;2023-10-31T14:55:58;2.43;;;0.97;;
21352;SDS011;10834;52.268;6.770;2023-10-31T14:58:43;1.77;;;1.03;;
21352;SDS011;10834;52.268;6.770;2023-10-31T15:01:27;2.20;;;1.00;;
21352;SDS011;10834;52.268;6.770;2023-10-31T15:04:11;2.93;;;0.87;;
21352;SDS011;10834;52.268;6.770;2023-10-31T15:06:56;0.80;;;0.80;;
21352;SDS011;10834;52.268;6.770;2023-10-31T15:09:41;3.03;;;1.00;;
21352;SDS011;10834;52.268;6.770;2023-10-31T15:12:25;3.00;;;0.90;;
21352;SDS011;10834;52.268;6.770;2023-10-31T15:15:10;2.27;;;1.20;;
21352;SDS011;10834;52.268;6.770;2023-10-31T15:17:54;3.80;;;1.07;;
21352;SDS011;10834;52.268;6.770;2023-10-31T15:20:38;5.37;;;1.00;;
21352;SDS011;10834;52.268;6.770;2023-10-31T15:23:23;4.00;;;1.30;;
21352;SDS011;10834;52.268;6.770;2023-10-31T15:26:09;4.33;;;3.00;;
21352;SDS011;10834;52.268;6.770;2023-10-31T15:28:56;7.83;;;3.57;;
21352;SDS011;10834;52.268;6.770;2023-10-31T15:31:42;6.53;;;2.23;;
21352;SDS011;10834;52.268;6.770;2023-10-31T15:34:28;4.07;;;1.50;;
21352;SDS011;10834;52.268;6.770;2023-10-31T15:37:12;5.33;;;1.40;;
21352;SDS011;10834;52.268;6.770;2023-10-31T15:39:56;2.37;;;1.53;;
21352;SDS011;10834;52.268;6.770;2023-10-31T15:42:41;3.10;;;1.30;;
21352;SDS011;10834;52.268;6.770;2023-10-31T15:45:25;5.63;;;1.53;;
21352;SDS011;10834;52.268;6.770;2023-10-31T15:48:10;1.90;;;1.30;;
21352;SDS011;10834;52.268;6.770;2023-10-31T15:50:54;2.47;;;1.57;;
21352;SDS011;10834;52.268;6.770;2023-10-31T15:53:38;2.57;;;1.90;;
21352;SDS011;10834;52.268;6.770;2023-10-31T15:56:23;2.90;;;1.17;;
21352;SDS011;10834;52.268;6.770;2023-10-31T15:59:07;3.17;;;1.53;;
21352;SDS011;10834;52.268;6.770;2023-10-31T16:01:51;5.77;;;2.10;;
21352;SDS011;10834;52.268;6.770;2023-10-31T16:04:35;6.37;;;2.23;;
21352;SDS011;10834;52.268;6.770;2023-10-31T16:07:19;4.80;;;1.93;;
21352;SDS011;10834;52.268;6.770;2023-10-31T16:10:05;5.40;;;2.77;;
21352;SDS011;10834;52.268;6.770;2023-10-31T16:12:49;4.23;;;2.53;;
21352;SDS011;10834;52.268;6.770;2023-10-31T16:15:34;4.33;;;2.90;;
21352;SDS011;10834;52.268;6.770;2023-10-31T16:18:18;4.90;;;2.73;;
21352;SDS011;10834;52.268;6.770;2023-10-31T16:21:02;6.80;;;3.63;;
21352;SDS011;10834;52.268;6.770;2023-10-31T16:23:58;7.37;;;4.07;;
21352;SDS011;10834;52.268;6.770;2023-10-31T16:26:43;5.77;;;3.83;;
21352;SDS011;10834;52.268;6.770;2023-10-31T16:29:27;7.60;;;4.17;;
21352;SDS011;10834;52.268;6.770;2023-10-31T16:32:11;10.37;;;4.70;;
21352;SDS011;10834;52.268;6.770;2023-10-31T16:34:57;7.40;;;5.43;;